Time;durP1;ratioP1;P1;durP2;ratioP2;P2;SDS_P1;SDS_P2;PMS_P1;PMS_P2;Temp;Humidity;BMP_temperature;BMP_pressure;BME280_temperature;BME280_humidity;BME280_pressure;Samples;Min_cycle;Max_cycle;Signal;HPM_P1;HPM_P2
2023/07/11 00:01:43;;;;;;;6.25;2.85;;;;;;;15.54;78.89;101822.38;5008446;28;20041;-77
2023/07/11 00:04:09;;;;;;;;;;;;;;;15.52;80.78;101813.75;4992565;28;20072;-78
2023/07/11 00:06:35;;;;;;;7.75;2.90;;;;;;;15.48;79.83;101812.69;5009335;28;19914;-76
2023/07/11 00:09:00;;;;;;;;;;;;;;;15.48;80.65;101815.38;4978400;28;20030;-76
2023/07/11 00:11:26;;;;;;;4.82;2.03;;;;;;;15.39;79.64;101808.94;5011164;28;20044;-76
2023/07/11 00:13:53;;;;;;;;;;;;;;;15.40;81.22;101810.56;5009557;28;20037;-76
2023/07/11 00:16:19;;;;;;;8.07;2.70;;;;;;;15.34;80.31;101814.34;4990613;28;19981;-76
2023/07/11 00:18:45;;;;;;;;;;;;;;;15.35;81.33;101813.28;4995532;28;20095;-78
2023/07/11 00:21:11;;;;;;;6.60;2.53;;;;;;;15.31;80.53;101812.22;5006359;28;19913;-77
2023/07/11 00:23:37;;;;;;;7.43;3.05;;;;;;;15.31;80.25;101820.31;5008358;28;20030;-78
2023/07/11 00:26:03;;;;;;;7.10;2.85;;;;;;;15.28;80.32;101824.34;5008840;28;20414;-77
2023/07/11 00:28:29;;;;;;;;;;;;;;;15.30;81.63;101821.38;4974869;28;20068;-79
2023/07/11 00:30:56;;;;;;;6.65;2.60;;;;;;;15.27;81.34;101824.63;5006337;28;19917;-77
2023/07/11 00:33:21;;;;;;;;;;;;;;;15.27;82.51;101816.53;4991867;28;20092;-77
2023/07/11 00:35:51;;;;;;;6.15;2.97;;;;;;;15.24;81.12;101830.56;5003900;28;19957;-79
2023/07/11 00:38:17;;;;;;;8.55;3.10;;;;;;;15.25;81.61;101813.31;5019392;28;20130;-77
2023/07/11 00:40:46;;;;;;;7.95;4.15;;;;;;;15.25;81.85;101805.22;4972150;28;20129;-76
2023/07/11 00:43:16;;;;;;;7.93;3.40;;;;;;;15.27;81.36;101811.16;4987859;28;20112;-78
2023/07/11 00:46:12;;;;;;;5.80;3.50;;;;;;;15.27;82.23;101805.75;4985364;28;20117;-77
2023/07/11 00:48:45;;;;;;;7.60;3.35;;;;;;;15.24;82.14;101800.88;4992684;28;20041;-77
2023/07/11 00:51:16;;;;;;;10.32;3.40;;;;;;;15.25;82.94;101807.94;4972331;28;20099;-77
2023/07/11 00:53:43;;;;;;;8.50;3.95;;;;;;;15.22;83.17;101794.97;4993447;28;20030;-77
2023/07/11 00:56:13;;;;;;;8.55;3.67;;;;;;;15.23;82.92;101797.38;5007141;28;20569;-76
2023/07/11 00:58:41;;;;;;;6.88;3.22;;;;;;;15.24;82.84;101795.50;4990539;28;20042;-77
2023/07/11 01:01:08;;;;;;;8.70;3.50;;;;;;;15.18;83.30;101791.22;5005788;28;20495;-78
2023/07/11 01:03:34;;;;;;;8.23;3.35;;;;;;;15.17;82.89;101786.88;5004095;28;20034;-76
2023/07/11 01:06:00;;;;;;;;;;;;;;;15.18;82.99;101791.22;5007027;28;20049;-77
2023/07/11 01:08:25;;;;;;;5.53;2.83;;;;;;;15.19;82.54;101787.44;4990257;28;19928;-76
2023/07/11 01:10:52;;;;;;;7.90;3.83;;;;;;;15.16;83.36;101779.88;5020738;28;20117;-77
2023/07/11 01:13:18;;;;;;;5.18;2.65;;;;;;;15.14;82.74;101782.03;5006339;28;20215;-78
2023/07/11 01:15:44;;;;;;;;;;;;;;;15.14;83.55;101784.75;5006813;28;20038;-75
2023/07/11 01:18:11;;;;;;;6.50;3.47;;;;;;;15.11;83.62;101788.00;5005928;28;20960;-75
2023/07/11 01:20:37;;;;;;;8.50;3.50;;;;;;;15.09;83.29;101787.44;5006399;28;20037;-76
2023/07/11 01:23:03;;;;;;;;;;;;;;;15.10;84.16;101783.66;4992061;28;20092;-75
2023/07/11 01:25:28;;;;;;;8.38;3.28;;;;;;;15.08;83.59;101791.22;5007072;28;19922;-76
2023/07/11 01:27:54;;;;;;;;;;;;;;;15.07;84.13;101778.81;5005113;28;20042;-76
2023/07/11 01:30:22;;;;;;;8.65;3.67;;;;;;;14.99;84.14;101772.91;4988755;28;19956;-76
2023/07/11 01:32:48;;;;;;;7.65;3.72;;;;;;;14.97;84.43;101771.56;5004731;28;20105;-77
2023/07/11 01:35:17;;;;;;;8.35;3.72;;;;;;;14.97;84.21;101768.84;5005856;28;20042;-77
2023/07/11 01:37:43;;;;;;;6.57;3.60;;;;;;;14.95;83.51;101765.63;5006724;28;20026;-76
2023/07/11 01:40:09;;;;;;;6.60;3.88;;;;;;;14.96;83.49;101768.06;5004104;28;20046;-76
2023/07/11 01:42:35;;;;;;;6.43;2.58;;;;;;;14.92;83.46;101756.22;4973549;28;20040;-74
2023/07/11 01:45:00;;;;;;;;;;;;;;;14.93;84.36;101768.63;5006971;28;20030;-77
2023/07/11 01:47:26;;;;;;;5.53;2.90;;;;;;;14.87;83.64;101756.22;4974600;28;19944;-75
2023/07/11 01:49:52;;;;;;;;;;;;;;;14.88;84.79;101748.94;4992311;28;20112;-78
2023/07/11 01:52:21;;;;;;;6.00;2.88;;;;;;;14.85;84.80;101742.22;5009472;28;19917;-79
2023/07/11 01:54:48;;;;;;;8.30;4.22;;;;;;;14.85;84.47;101750.28;5010186;28;20081;-76
2023/07/11 01:57:14;;;;;;;7.20;3.72;;;;;;;14.82;85.71;101748.13;5008806;28;20097;-77
2023/07/11 01:59:40;;;;;;;6.95;4.13;;;;;;;14.80;84.97;101753.00;4975020;28;20103;-76
2023/07/11 02:02:08;;;;;;;7.15;3.10;;;;;;;14.79;84.25;101748.69;5008505;28;20740;-75
2023/07/11 02:04:36;;;;;;;5.78;3.08;;;;;;;14.81;84.07;101743.81;4983682;28;20142;-76
2023/07/11 02:07:03;;;;;;;5.90;3.17;;;;;;;14.83;84.35;101741.66;5007732;28;20419;-77
2023/07/11 02:09:29;;;;;;;6.57;2.92;;;;;;;14.85;83.96;101755.69;4993088;28;20030;-76
2023/07/11 02:11:55;;;;;;;8.00;3.75;;;;;;;14.83;84.40;101744.34;4990231;28;20045;-76
2023/07/11 02:14:21;;;;;;;8.50;4.28;;;;;;;14.81;85.54;101743.00;4978473;28;20046;-79
2023/07/11 02:16:48;;;;;;;;;;;;;;;14.77;85.63;101740.06;5018774;22;20061;-74
2023/07/11 02:19:16;;;;;;;5.95;3.50;;;;;;;14.73;84.51;101736.28;5019720;28;20003;-75
2023/07/11 02:21:43;;;;;;;5.95;3.55;;;;;;;14.72;84.46;101742.78;5037580;28;20115;-75
2023/07/11 02:24:11;;;;;;;5.40;2.97;;;;;;;14.70;84.13;101747.63;5026662;28;20585;-74
2023/07/11 02:26:37;;;;;;;5.65;3.42;;;;;;;14.69;84.86;101741.41;5014000;28;20029;-74
2023/07/11 02:29:03;;;;;;;7.28;3.85;;;;;;;14.67;85.25;101730.09;5011003;28;20048;-75
2023/07/11 02:31:31;;;;;;;5.13;3.30;;;;;;;14.67;84.67;101742.78;5013002;28;20042;-75
2023/07/11 02:33:57;;;;;;;6.15;3.92;;;;;;;14.65;85.05;101734.16;5009564;28;20041;-75
2023/07/11 02:36:23;;;;;;;7.82;3.72;;;;;;;14.67;84.92;101734.69;5008487;28;20044;-75
2023/07/11 02:38:49;;;;;;;7.07;3.00;;;;;;;14.68;84.74;101730.91;5011258;28;20117;-75
2023/07/11 02:41:14;;;;;;;;;;;;;;;14.69;85.06;101729.81;5025608;28;20021;-74
2023/07/11 02:43:40;;;;;;;7.05;3.33;;;;;;;14.65;84.72;101720.69;5005623;28;19917;-75
2023/07/11 02:46:06;;;;;;;6.85;3.70;;;;;;;14.62;85.75;101718.53;5005507;28;20034;-75
2023/07/11 02:48:31;;;;;;;;;;;;;;;14.61;86.60;101717.72;4997676;28;20505;-75
2023/07/11 02:50:57;;;;;;;7.68;4.15;;;;;;;14.57;86.01;101726.63;5004849;28;19928;-75
2023/07/11 02:53:23;;;;;;;9.80;3.83;;;;;;;14.58;85.06;101731.75;5009555;28;20034;-75
2023/07/11 02:55:53;;;;;;;6.72;3.88;;;;;;;14.60;85.35;101728.78;5004904;28;20426;-74
2023/07/11 02:58:19;;;;;;;6.60;3.42;;;;;;;14.56;85.01;101725.00;5009516;28;20037;-75
2023/07/11 03:00:49;;;;;;;6.50;3.00;;;;;;;14.53;85.13;101726.34;4995570;28;20033;-75
2023/07/11 03:03:16;;;;;;;5.63;2.60;;;;;;;14.54;84.81;101732.56;5009640;28;20416;-75
2023/07/11 03:05:43;;;;;;;5.88;3.50;;;;;;;14.52;85.06;101729.34;5025122;28;20387;-75
2023/07/11 03:08:09;;;;;;;7.45;3.58;;;;;;;14.50;85.77;101720.72;5005479;28;20030;-76
2023/07/11 03:10:34;;;;;;;7.78;3.50;;;;;;;14.50;85.54;101723.41;4993596;28;20052;-75
2023/07/11 03:13:00;;;;;;;7.78;3.55;;;;;;;14.52;86.66;101718.56;5007561;28;20037;-75
2023/07/11 03:15:26;;;;;;;6.97;3.95;;;;;;;14.54;86.93;101709.09;5023636;28;20486;-75
2023/07/11 03:17:51;;;;;;;8.30;4.65;;;;;;;14.57;87.08;101705.06;5010303;28;20037;-75
2023/07/11 03:20:17;;;;;;;11.32;4.05;;;;;;;14.58;85.81;101695.91;4994189;28;20039;-75
2023/07/11 03:22:42;;;;;;;10.70;4.40;;;;;;;14.57;86.82;101699.69;5007896;28;20418;-75
2023/07/11 03:25:08;;;;;;;7.45;4.13;;;;;;;14.53;86.06;101693.22;4992459;28;20026;-75
2023/07/11 03:27:34;;;;;;;5.47;3.58;;;;;;;14.53;86.47;101679.72;5019203;28;20044;-76
2023/07/11 03:30:00;;;;;;;7.38;5.03;;;;;;;14.52;86.72;101681.63;4972247;28;20034;-75
2023/07/11 03:32:26;;;;;;;9.13;4.68;;;;;;;14.50;87.42;101685.69;5007079;28;20041;-75
2023/07/11 03:34:51;;;;;;;17.63;5.50;;;;;;;14.48;87.32;101680.53;5007877;28;20034;-75
2023/07/11 03:37:17;;;;;;;9.02;5.13;;;;;;;14.50;87.38;101674.91;5008295;28;20033;-75
2023/07/11 03:39:42;;;;;;;8.27;5.03;;;;;;;14.51;87.78;101671.13;5003627;28;20131;-74
2023/07/11 03:42:08;;;;;;;8.77;4.70;;;;;;;14.51;87.03;101674.63;5006666;28;20041;-75
2023/07/11 03:44:34;;;;;;;6.15;3.88;;;;;;;14.51;86.74;101673.81;5008800;28;20080;-75
2023/07/11 03:47:01;;;;;;;;;;;;;;;14.55;87.19;101680.25;5023182;28;20151;-76
2023/07/11 03:49:27;;;;;;;12.85;4.70;;;;;;;14.54;87.41;101667.88;5006158;28;20711;-75
2023/07/11 03:51:52;;;;;;;7.93;5.25;;;;;;;14.58;87.46;101671.63;5006262;28;20030;-75
2023/07/11 03:54:18;;;;;;;8.10;4.68;;;;;;;14.60;88.14;101662.19;4988055;28;20038;-75
2023/07/11 03:56:43;;;;;;;7.03;4.55;;;;;;;14.61;87.00;101666.50;5006558;28;20627;-73
2023/07/11 03:59:09;;;;;;;6.78;4.50;;;;;;;14.67;87.16;101656.50;4989413;28;20051;-75
2023/07/11 04:01:35;;;;;;;8.20;5.03;;;;;;;14.70;87.89;101661.38;5007257;28;20030;-75
2023/07/11 04:04:01;;;;;;;;;;;;;;;14.78;88.31;101660.00;5015909;28;20049;-74
2023/07/11 04:06:26;;;;;;;8.43;4.60;;;;;;;14.86;88.23;101654.03;4985312;28;19913;-75
2023/07/11 04:08:52;;;;;;;8.57;4.50;;;;;;;14.92;87.57;101659.13;5007430;28;20132;-75
2023/07/11 04:11:18;;;;;;;7.22;4.45;;;;;;;14.98;88.69;101660.72;5021156;28;20511;-75
2023/07/11 04:13:43;;;;;;;;;;;;;;;15.06;88.68;101663.91;5024907;28;20461;-75
2023/07/11 04:16:09;;;;;;;7.47;4.68;;;;;;;15.08;87.66;101662.53;5006833;28;19918;-75
2023/07/11 04:18:34;;;;;;;7.78;4.25;;;;;;;15.13;87.71;101664.41;5007262;28;20515;-75
2023/07/11 04:21:00;;;;;;;8.52;4.40;;;;;;;15.20;87.26;101659.53;5006509;28;20068;-75
2023/07/11 04:23:25;;;;;;;;;;;;;;;15.25;87.12;101662.19;5006210;28;20041;-75
2023/07/11 04:25:52;;;;;;;12.10;4.57;;;;;;;15.27;87.33;101660.03;5009001;28;19917;-74
2023/07/11 04:28:18;;;;;;;9.40;4.45;;;;;;;15.30;86.72;101654.06;5005099;28;20041;-75
2023/07/11 04:30:44;;;;;;;6.75;4.07;;;;;;;15.35;86.87;101650.53;5021818;28;20069;-74
2023/07/11 04:33:10;;;;;;;6.78;4.47;;;;;;;15.36;86.65;101654.84;5003031;28;20096;-75
2023/07/11 04:35:35;;;;;;;6.95;4.05;;;;;;;15.40;86.51;101648.63;5005267;28;20573;-75
2023/07/11 04:38:01;;;;;;;8.38;4.63;;;;;;;15.38;86.30;101650.78;5022237;28;20037;-75
2023/07/11 04:40:28;;;;;;;7.30;4.20;;;;;;;15.39;86.09;101647.00;5005993;28;20517;-75
2023/07/11 04:42:58;;;;;;;8.43;4.68;;;;;;;15.40;86.17;101643.22;5022445;28;20033;-75
2023/07/11 04:45:23;;;;;;;7.45;4.47;;;;;;;15.43;86.26;101637.25;4992800;28;20095;-77
2023/07/11 04:47:49;;;;;;;7.00;4.63;;;;;;;15.47;86.38;101641.00;4988091;28;20053;-76
2023/07/11 04:50:15;;;;;;;;;;;;;;;15.52;86.21;101632.06;5007412;28;20185;-75
2023/07/11 04:52:42;;;;;;;12.13;4.95;;;;;;;15.52;86.06;101632.88;4976430;28;20004;-74
2023/07/11 04:55:09;;;;;;;9.38;4.20;;;;;;;15.59;86.10;101642.56;5017190;28;20052;-75
2023/07/11 04:57:34;;;;;;;11.30;4.82;;;;;;;15.65;85.59;101630.66;4969767;28;20033;-74
2023/07/11 05:00:00;;;;;;;;;;;;;;;15.69;85.91;101640.59;5002847;28;20427;-75
2023/07/11 05:02:26;;;;;;;9.68;4.60;;;;;;;15.72;85.74;101644.66;5000961;28;19940;-74
2023/07/11 05:04:52;;;;;;;;;;;;;;;15.80;85.86;101638.63;5005807;28;20743;-74
2023/07/11 05:07:18;;;;;;;6.70;3.92;;;;;;;15.82;85.63;101637.25;4986620;28;19922;-74
2023/07/11 05:09:44;;;;;;;;;;;;;;;15.90;84.96;101633.13;5019159;28;20140;-74
2023/07/11 05:12:10;;;;;;;7.88;4.72;;;;;;;15.97;85.26;101630.91;5019618;28;19956;-75
2023/07/11 05:14:36;;;;;;;8.18;3.60;;;;;;;16.04;84.46;101630.56;5004656;28;20061;-75
2023/07/11 05:17:03;;;;;;;9.13;4.07;;;;;;;16.11;84.63;101634.56;5016123;28;20034;-75
2023/07/11 05:19:28;;;;;;;;;;;;;;;16.19;83.97;101626.91;4988430;28;20092;-74
2023/07/11 05:21:54;;;;;;;7.40;4.60;;;;;;;16.28;83.83;101630.63;5015554;28;19964;-74
2023/07/11 05:24:20;;;;;;;7.35;3.75;;;;;;;16.33;83.85;101625.19;5000569;28;20045;-73
2023/07/11 05:26:45;;;;;;;;;;;;;;;16.45;83.08;101620.16;5002720;28;20109;-74
2023/07/11 05:29:11;;;;;;;6.57;3.53;;;;;;;16.51;83.13;101621.72;5001245;28;20361;-75
2023/07/11 05:31:36;;;;;;;;;;;;;;;16.63;83.25;101627.53;4985886;28;20069;-75
2023/07/11 05:34:03;;;;;;;7.22;4.18;;;;;;;16.70;82.65;101613.69;4997350;28;19913;-74
2023/07/11 05:36:32;;;;;;;;;;;;;;;16.77;82.51;101616.84;5000862;28;20944;-75
2023/07/11 05:39:11;;;;;;;5.25;3.17;;;;;;;16.84;81.33;101616.50;5017437;28;20660;-75
2023/07/11 05:41:41;;;;;;;6.00;3.30;;;;;;;16.95;81.56;101615.28;4986620;28;20037;-75
2023/07/11 05:44:07;;;;;;;6.65;3.22;;;;;;;17.05;80.22;101607.00;4998587;28;20119;-75
2023/07/11 05:46:32;;;;;;;;;;;;;;;17.14;79.85;101605.25;5025903;28;20549;-75
2023/07/11 05:48:58;;;;;;;6.43;3.50;;;;;;;17.25;79.27;101610.50;5001830;28;19920;-74
2023/07/11 05:51:24;;;;;;;;;;;;;;;17.28;79.53;101604.53;5002337;28;20050;-75
2023/07/11 05:53:50;;;;;;;6.90;3.20;;;;;;;17.39;78.13;101589.72;4985089;28;19917;-75
2023/07/11 05:56:17;;;;;;;6.28;2.88;;;;;;;17.48;78.07;101590.69;5001860;28;20045;-77
2023/07/11 05:58:44;;;;;;;5.60;2.63;;;;;;;17.58;77.97;101581.56;5004199;28;20045;-75
2023/07/11 06:01:16;;;;;;;5.93;3.58;;;;;;;17.69;77.11;101586.53;4998339;28;20324;-74
2023/07/11 06:03:45;;;;;;;4.60;2.83;;;;;;;17.84;76.56;101574.66;4999502;28;20388;-74
2023/07/11 06:06:13;;;;;;;7.00;3.13;;;;;;;17.91;76.91;101563.44;5000059;28;20049;-74
2023/07/11 06:08:39;;;;;;;6.05;2.78;;;;;;;18.06;76.18;101555.00;5005649;28;20038;-74
2023/07/11 06:11:05;;;;;;;;;;;;;;;18.21;74.95;101557.41;4979576;28;20652;-74
2023/07/11 06:13:34;;;;;;;6.05;2.50;;;;;;;18.32;75.04;101557.22;5005599;28;19921;-75
2023/07/11 06:16:05;;;;;;;5.65;2.67;;;;;;;18.38;74.31;101550.59;5002010;28;20034;-74
2023/07/11 06:18:36;;;;;;;5.20;2.72;;;;;;;18.49;73.24;101550.09;5019239;28;20033;-75
2023/07/11 06:21:04;;;;;;;5.75;2.55;;;;;;;18.63;72.72;101546.53;5002995;28;20507;-75
2023/07/11 06:23:31;;;;;;;5.20;2.30;;;;;;;18.66;72.85;101535.91;5001698;28;21022;-76
2023/07/11 06:25:56;;;;;;;4.60;2.40;;;;;;;18.77;71.88;101531.88;5000331;28;20038;-76
2023/07/11 06:28:22;;;;;;;;;;;;;;;18.81;71.82;101534.78;4985839;28;20037;-76
2023/07/11 06:30:48;;;;;;;5.70;2.40;;;;;;;18.90;71.49;101535.69;5017730;28;19995;-77
2023/07/11 06:33:18;;;;;;;;;;;;;;;18.99;70.28;101541.16;5007849;28;20052;-74
2023/07/11 06:35:48;;;;;;;;;;;;;;;19.13;70.08;101531.06;5004568;28;19913;-74
2023/07/11 06:38:14;;;;;;;5.35;2.25;;;;;;;19.20;69.86;101528.72;5018637;28;19921;-76
2023/07/11 06:40:39;;;;;;;;;;;;;;;19.30;69.67;101523.03;4992319;28;20680;-76
2023/07/11 06:43:05;;;;;;;6.03;2.38;;;;;;;19.44;69.59;101527.59;5006606;28;19996;-76
2023/07/11 06:45:31;;;;;;;5.55;2.10;;;;;;;19.51;69.69;101525.22;4974993;28;20745;-77
2023/07/11 06:47:56;;;;;;;7.15;2.22;;;;;;;19.58;68.66;101520.22;5008697;28;20087;-77
2023/07/11 06:50:22;;;;;;;8.07;2.38;;;;;;;19.69;67.77;101509.88;4989511;28;20041;-76
2023/07/11 06:52:48;;;;;;;;;;;;;;;19.78;67.30;101513.41;5009663;28;20042;-77
2023/07/11 06:55:13;;;;;;;4.63;2.10;;;;;;;19.87;68.39;101520.50;5003660;28;19917;-75
2023/07/11 06:57:40;;;;;;;;;;;;;;;19.97;66.97;101518.63;5009956;28;20695;-75
2023/07/11 07:00:07;;;;;;;5.97;3.33;;;;;;;20.01;66.30;101504.09;5005785;28;20289;-77
2023/07/11 07:02:33;;;;;;;4.38;2.17;;;;;;;20.07;66.35;101504.75;4977730;28;20607;-78
2023/07/11 07:05:02;;;;;;;4.18;2.15;;;;;;;20.21;64.94;101513.59;5003375;28;20112;-77
2023/07/11 07:07:28;;;;;;;3.25;2.03;;;;;;;20.26;66.05;101505.28;4990640;28;20136;-76
2023/07/11 07:09:53;;;;;;;;;;;;;;;20.32;65.03;101500.47;4992697;28;20029;-77
2023/07/11 07:12:19;;;;;;;6.43;2.83;;;;;;;20.44;64.63;101506.94;4990072;28;19967;-77
2023/07/11 07:14:45;;;;;;;5.75;2.17;;;;;;;20.58;65.21;101506.00;5007910;28;20064;-74
2023/07/11 07:17:11;;;;;;;4.90;2.40;;;;;;;20.69;63.62;101504.59;5004801;28;20120;-76
2023/07/11 07:19:36;;;;;;;6.60;2.53;;;;;;;20.82;65.24;101495.47;4988042;28;20060;-76
2023/07/11 07:22:02;;;;;;;4.38;2.60;;;;;;;20.94;64.10;101500.28;5006213;28;20087;-76
2023/07/11 07:24:28;;;;;;;5.05;2.40;;;;;;;21.05;65.00;101501.53;5002678;28;20034;-77
2023/07/11 07:26:54;;;;;;;3.55;1.98;;;;;;;21.21;62.55;101499.13;4976309;28;20049;-75
2023/07/11 07:29:21;;;;;;;4.88;2.05;;;;;;;21.37;63.96;101489.34;4986511;28;20072;-75
2023/07/11 07:31:47;;;;;;;3.55;1.90;;;;;;;21.46;60.69;101495.56;5005490;28;20137;-76
2023/07/11 07:34:12;;;;;;;4.88;2.08;;;;;;;21.57;61.77;101485.13;5020523;28;20172;-76
2023/07/11 07:36:38;;;;;;;5.35;1.90;;;;;;;21.73;62.75;101485.38;5009238;28;20103;-79
2023/07/11 07:39:03;;;;;;;4.45;2.03;;;;;;;21.87;61.76;101483.22;5005784;28;20034;-78
2023/07/11 07:41:29;;;;;;;5.15;2.15;;;;;;;21.95;60.41;101487.84;4978021;28;20061;-76
2023/07/11 07:43:55;;;;;;;5.13;1.90;;;;;;;22.04;61.13;101474.97;4974303;28;20038;-77
2023/07/11 07:46:20;;;;;;;8.02;2.00;;;;;;;22.19;61.23;101483.72;5004418;28;20117;-76
2023/07/11 07:48:46;;;;;;;3.53;2.13;;;;;;;22.26;60.33;101470.38;5008344;28;20467;-77
2023/07/11 07:51:15;;;;;;;4.45;2.20;;;;;;;22.42;59.60;101482.31;5021390;28;20034;-77
2023/07/11 07:53:41;;;;;;;3.97;1.55;;;;;;;22.57;59.15;101470.81;5009561;28;20613;-78
2023/07/11 07:56:12;;;;;;;5.97;2.40;;;;;;;22.68;57.99;101471.19;5007539;28;20045;-77
2023/07/11 07:58:38;;;;;;;4.38;1.90;;;;;;;22.85;58.89;101465.59;5008646;28;20486;-77
2023/07/11 08:01:04;;;;;;;4.82;2.03;;;;;;;22.94;57.57;101462.78;4988496;28;20132;-74
2023/07/11 08:03:30;;;;;;;3.60;1.80;;;;;;;23.03;58.49;101457.25;5006890;28;20040;-75
2023/07/11 08:05:57;;;;;;;4.55;2.50;;;;;;;23.11;59.16;101461.84;4972859;28;20049;-76
2023/07/11 08:08:23;;;;;;;3.83;2.30;;;;;;;23.22;58.93;101451.25;5004246;28;20034;-76
2023/07/11 08:10:49;;;;;;;4.53;1.88;;;;;;;23.20;56.60;101459.81;5018274;23;20533;-79
2023/07/11 08:13:15;;;;;;;5.03;2.60;;;;;;;23.29;58.97;101456.97;4974334;28;20069;-79
2023/07/11 08:15:42;;;;;;;4.38;2.22;;;;;;;23.34;57.62;101449.38;4989730;28;20530;-77
2023/07/11 08:18:09;;;;;;;5.20;2.65;;;;;;;23.42;57.85;101445.72;4989337;28;20443;-81
2023/07/11 08:20:36;;;;;;;6.05;2.83;;;;;;;23.49;58.53;101449.84;5005279;28;20774;-80
2023/07/11 08:23:01;;;;;;;4.55;2.05;;;;;;;23.51;56.90;101429.25;4990720;28;20021;-78
2023/07/11 08:25:27;;;;;;;2.72;1.75;;;;;;;23.60;55.70;101435.38;5002911;28;20108;-79
2023/07/11 08:27:53;;;;;;;4.72;2.00;;;;;;;23.72;55.74;101431.91;4989241;28;20038;-79
2023/07/11 08:30:19;;;;;;;5.82;2.80;;;;;;;23.82;56.55;101438.84;5005780;28;20060;-82
2023/07/11 08:32:46;;;;;;;5.40;2.60;;;;;;;23.94;55.50;101433.38;5009546;28;20398;-79
2023/07/11 08:35:12;;;;;;;5.45;2.78;;;;;;;24.01;54.63;101428.13;5008867;28;20030;-77
2023/07/11 08:37:37;;;;;;;3.70;2.30;;;;;;;24.02;53.69;101415.22;4988757;28;20037;-78
2023/07/11 08:40:04;;;;;;;4.97;2.45;;;;;;;24.05;55.28;101420.81;5005946;28;20037;-79
2023/07/11 08:42:41;;;;;;;7.47;2.20;;;;;;;24.13;57.86;101419.09;5011688;28;20033;-76
2023/07/11 08:45:22;;;;;;;5.53;2.75;;;;;;;24.25;54.51;101416.34;4971024;28;20068;-79
2023/07/11 08:48:00;;;;;;;4.53;1.90;;;;;;;24.31;56.63;101420.41;5006787;28;20389;-78
2023/07/11 08:50:31;;;;;;;7.97;2.28;;;;;;;24.37;54.20;101418.25;5007921;28;20072;-78
2023/07/11 08:53:11;;;;;;;4.60;2.38;;;;;;;24.42;54.57;101412.53;5008842;28;20388;-79
2023/07/11 08:55:43;;;;;;;4.38;1.90;;;;;;;24.47;55.00;101401.34;5009000;28;20049;-80
2023/07/11 08:58:15;;;;;;;6.60;2.38;;;;;;;24.55;55.55;101402.34;4959679;28;20057;-80
2023/07/11 09:00:43;;;;;;;;;;;;;;;24.61;54.74;101400.97;4993623;28;20164;-79
2023/07/11 09:03:32;;;;;;;5.10;2.53;;;;;;;24.65;53.91;101405.38;4994036;28;19917;-81
2023/07/11 09:06:12;;;;;;;5.32;2.22;;;;;;;24.76;54.73;101400.19;5012321;28;20041;-79
2023/07/11 09:08:42;;;;;;;6.82;2.10;;;;;;;24.79;52.32;101407.69;4988085;28;20038;-78
2023/07/11 09:11:45;;;;;;;5.72;2.88;;;;;;;24.77;51.87;101402.56;5007435;28;20026;-77
2023/07/11 09:14:29;;;;;;;4.03;2.65;;;;;;;24.75;52.11;101390.38;4988119;28;20048;-79
2023/07/11 09:17:21;;;;;;;4.38;1.83;;;;;;;24.93;51.74;101397.16;5007466;28;20041;-79
2023/07/11 09:20:11;;;;;;;4.30;2.17;;;;;;;25.15;53.22;101393.03;5006835;28;20505;-76
2023/07/11 09:22:57;;;;;;;7.13;2.63;;;;;;;25.34;51.65;101383.31;4992216;28;20449;-80
2023/07/11 09:25:45;;;;;;;5.47;4.10;;;;;;;25.53;50.69;101375.16;5002830;28;20053;-77
2023/07/11 09:28:18;;;;;;;5.10;2.60;;;;;;;25.62;50.39;101375.78;5006404;28;20041;-78
2023/07/11 09:30:53;;;;;;;4.88;2.20;;;;;;;25.69;49.36;101372.41;4992796;28;20120;-78
2023/07/11 09:33:22;;;;;;;5.35;2.67;;;;;;;25.70;47.73;101363.00;5004059;28;20042;-79
2023/07/11 09:35:51;;;;;;;3.63;2.13;;;;;;;25.77;49.32;101369.47;4993670;28;20091;-80
2023/07/11 09:38:32;;;;;;;5.38;2.50;;;;;;;25.84;49.02;101358.66;4987225;28;20045;-83
2023/07/11 09:41:08;;;;;;;5.03;1.95;;;;;;;25.90;47.77;101361.94;5007019;28;20061;-80
2023/07/11 09:43:33;;;;;;;4.95;1.98;;;;;;;26.05;47.04;101352.84;5003932;28;20033;-76
2023/07/11 09:46:00;;;;;;;4.55;1.95;;;;;;;26.15;46.13;101354.22;5007917;28;20128;-83
2023/07/11 09:48:36;;;;;;;5.25;2.30;;;;;;;26.18;46.12;101355.44;5011023;28;20052;-76
2023/07/11 09:51:13;;;;;;;4.75;2.03;;;;;;;26.17;46.16;101349.16;5004990;28;20418;-77
2023/07/11 09:53:44;;;;;;;6.35;2.30;;;;;;;26.18;46.30;101344.47;5023426;28;20034;-77
2023/07/11 09:56:15;;;;;;;3.28;2.33;;;;;;;26.21;46.15;101344.53;5006209;28;20088;-80
2023/07/11 09:58:47;;;;;;;3.92;2.78;;;;;;;26.37;45.75;101348.00;4992883;28;20038;-77
2023/07/11 10:01:21;;;;;;;4.35;2.60;;;;;;;26.43;44.82;101336.78;4984961;28;20060;-79
2023/07/11 10:03:47;;;;;;;3.63;1.90;;;;;;;26.52;46.28;101340.06;5010695;28;20688;-80
2023/07/11 10:06:35;;;;;;;3.13;2.13;;;;;;;26.60;42.88;101339.03;5002309;28;20033;-78
2023/07/11 10:09:10;;;;;;;3.13;1.73;;;;;;;26.69;45.04;101331.38;5009388;28;20030;-80
2023/07/11 10:11:36;;;;;;;3.85;1.73;;;;;;;26.66;42.39;101334.84;4978035;28;20036;-79
2023/07/11 10:14:02;;;;;;;5.53;1.80;;;;;;;26.79;44.08;101325.25;4991211;28;20533;-77
2023/07/11 10:16:33;;;;;;;4.32;2.00;;;;;;;26.89;41.71;101330.16;4993726;28;20072;-77
2023/07/11 10:18:59;;;;;;;5.25;2.10;;;;;;;26.88;42.35;101317.56;5011898;28;20030;-79
2023/07/11 10:21:31;;;;;;;8.68;2.75;;;;;;;26.88;40.72;101306.56;4994886;28;20088;-79
2023/07/11 10:23:57;;;;;;;4.40;2.10;;;;;;;26.88;43.64;101303.03;4995955;28;20410;-78
2023/07/11 10:26:25;;;;;;;8.45;2.67;;;;;;;26.85;41.11;101306.53;5006578;28;20038;-79
2023/07/11 10:29:02;;;;;;;6.70;3.10;;;;;;;26.90;42.79;101298.78;4989494;28;20048;-76
2023/07/11 10:31:35;;;;;;;3.22;1.80;;;;;;;26.97;43.52;101289.06;5011603;28;20044;-77
2023/07/11 10:34:19;;;;;;;7.72;2.63;;;;;;;27.11;45.32;101292.84;5009569;28;20096;-77
2023/07/11 10:36:53;;;;;;;3.58;1.95;;;;;;;27.25;45.28;101295.03;5003822;28;20046;-76
2023/07/11 10:39:19;;;;;;;5.97;2.50;;;;;;;27.30;43.40;101289.22;4987893;28;20455;-77
2023/07/11 10:41:52;;;;;;;4.28;2.00;;;;;;;27.27;42.34;101272.66;5011706;28;20048;-76
2023/07/11 10:44:23;;;;;;;5.43;2.47;;;;;;;27.20;42.22;101276.88;4994094;28;20055;-77
2023/07/11 10:46:50;;;;;;;;;;;;;;;27.19;41.04;101277.25;5011938;28;20064;-74
2023/07/11 10:49:23;;;;;;;6.63;2.88;;;;;;;27.14;40.50;101275.59;5009321;28;19913;-76
2023/07/11 10:51:57;;;;;;;3.97;2.10;;;;;;;27.14;41.53;101270.09;4991285;28;20066;-75
2023/07/11 10:54:40;;;;;;;4.30;2.63;;;;;;;27.18;42.58;101265.47;4988383;28;20120;-76
2023/07/11 10:57:14;;;;;;;4.68;2.08;;;;;;;27.27;42.91;101261.66;5008960;28;20037;-75
2023/07/11 10:59:40;;;;;;;4.35;2.00;;;;;;;27.43;43.03;101249.34;4993422;28;20077;-77
2023/07/11 11:02:18;;;;;;;3.60;2.10;;;;;;;27.49;42.17;101256.06;5005751;28;20073;-80
2023/07/11 11:04:49;;;;;;;4.28;2.20;;;;;;;27.55;42.53;101247.50;5007505;28;20092;-79
2023/07/11 11:07:33;;;;;;;4.88;2.65;;;;;;;27.66;41.35;101249.22;5006268;28;20051;-77
2023/07/11 11:10:13;;;;;;;4.90;2.05;;;;;;;27.78;41.20;101236.44;5006794;28;20106;-81
2023/07/11 11:13:06;;;;;;;5.32;2.20;;;;;;;27.82;40.41;101232.53;5010997;28;20117;-79
2023/07/11 11:15:38;;;;;;;4.63;2.20;;;;;;;27.77;42.01;101240.34;5009613;28;20498;-80
2023/07/11 11:18:25;;;;;;;4.38;2.20;;;;;;;27.73;40.02;101234.81;5011402;28;20037;-76
2023/07/11 11:21:05;;;;;;;6.00;2.17;;;;;;;27.79;43.22;101238.81;5012485;28;20395;-79
2023/07/11 11:24:09;;;;;;;3.85;2.42;;;;;;;27.79;41.33;101230.56;5002415;28;20092;-80
2023/07/11 11:26:53;;;;;;;4.00;2.30;;;;;;;27.88;41.31;101219.25;5007047;28;20049;-80
2023/07/11 11:29:49;;;;;;;3.85;2.95;;;;;;;27.97;42.92;101228.78;4993448;28;20045;-79
2023/07/11 11:32:23;;;;;;;;;;;;;;;27.94;41.58;101213.03;5007231;28;20049;-80
2023/07/11 11:35:23;;;;;;;3.97;2.47;;;;;;;27.84;41.87;101218.41;5005880;28;19967;-79
2023/07/11 11:38:04;;;;;;;4.78;2.33;;;;;;;27.81;41.47;101197.94;4987468;28;20037;-78
2023/07/11 11:40:36;;;;;;;4.30;2.85;;;;;;;27.83;41.40;101201.09;5004334;28;20049;-76
2023/07/11 11:43:06;;;;;;;5.93;2.97;;;;;;;27.98;41.62;101202.84;4987799;28;20338;-79